sensor_id;sensor_type;location;lat;lon;timestamp;pressure;altitude;pressure_sealevel;temperature;humidity
69460;BME280;57182;55.712;37.612;2022-09-06T00:01:07;100232.34;;;9.49;70.84
69460;BME280;57182;55.712;37.612;2022-09-06T00:03:38;100216.69;;;9.30;70.68
69460;BME280;57182;55.712;37.612;2022-09-06T00:06:14;100213.22;;;9.30;70.92
69460;BME280;57182;55.712;37.612;2022-09-06T00:08:43;100208.38;;;9.22;71.06
69460;BME280;57182;55.712;37.612;2022-09-06T00:11:11;100213.59;;;9.22;71.24
69460;BME280;57182;55.712;37.612;2022-09-06T00:13:39;100211.81;;;9.23;71.07
69460;BME280;57182;55.712;37.612;2022-09-06T00:16:08;100224.25;;;9.36;71.25
69460;BME280;57182;55.712;37.612;2022-09-06T00:18:37;100224.88;;;9.41;70.70
69460;BME280;57182;55.712;37.612;2022-09-06T00:21:15;100219.78;;;9.38;71.56
69460;BME280;57182;55.712;37.612;2022-09-06T00:23:43;100204.38;;;9.32;70.79
69460;BME280;57182;55.712;37.612;2022-09-06T00:26:11;100228.25;;;9.43;71.12
69460;BME280;57182;55.712;37.612;2022-09-06T00:28:38;100204.53;;;9.29;70.85
69460;BME280;57182;55.712;37.612;2022-09-06T00:31:09;100215.53;;;9.36;70.64
69460;BME280;57182;55.712;37.612;2022-09-06T00:33:37;100206.66;;;9.21;71.39
69460;BME280;57182;55.712;37.612;2022-09-06T00:36:07;100215.44;;;9.20;71.02
69460;BME280;57182;55.712;37.612;2022-09-06T00:38:36;100209.28;;;9.21;71.06
69460;BME280;57182;55.712;37.612;2022-09-06T00:41:05;100219.31;;;9.30;71.10
69460;BME280;57182;55.712;37.612;2022-09-06T00:43:33;100190.47;;;9.13;71.24
69460;BME280;57182;55.712;37.612;2022-09-06T00:46:01;100217.31;;;9.35;70.86
69460;BME280;57182;55.712;37.612;2022-09-06T00:48:30;100208.06;;;9.28;70.76
69460;BME280;57182;55.712;37.612;2022-09-06T00:51:01;100213.44;;;9.25;70.46
69460;BME280;57182;55.712;37.612;2022-09-06T00:53:30;100218.53;;;9.28;70.62
69460;BME280;57182;55.712;37.612;2022-09-06T00:55:58;100228.25;;;9.26;70.64
69460;BME280;57182;55.712;37.612;2022-09-06T00:58:27;100216.66;;;9.13;70.89
69460;BME280;57182;55.712;37.612;2022-09-06T01:00:54;100206.56;;;9.06;71.08
69460;BME280;57182;55.712;37.612;2022-09-06T01:03:23;100217.44;;;9.15;71.04
69460;BME280;57182;55.712;37.612;2022-09-06T01:14:19;100215.63;;;9.34;70.29
69460;BME280;57182;55.712;37.612;2022-09-06T01:17:13;100217.00;;;9.41;71.25
69460;BME280;57182;55.712;37.612;2022-09-06T01:25:45;100213.38;;;9.27;70.99
69460;BME280;57182;55.712;37.612;2022-09-06T01:31:17;100215.06;;;9.28;70.89
69460;BME280;57182;55.712;37.612;2022-09-06T01:34:18;100216.06;;;9.25;71.63
69460;BME280;57182;55.712;37.612;2022-09-06T01:36:55;100213.28;;;9.28;71.56
69460;BME280;57182;55.712;37.612;2022-09-06T01:39:40;100213.06;;;9.33;70.91
69460;BME280;57182;55.712;37.612;2022-09-06T01:42:18;100218.91;;;9.38;71.49
69460;BME280;57182;55.712;37.612;2022-09-06T01:44:55;100217.38;;;9.34;71.32
69460;BME280;57182;55.712;37.612;2022-09-06T01:47:52;100212.06;;;9.35;71.44
69460;BME280;57182;55.712;37.612;2022-09-06T02:06:39;100219.47;;;9.27;71.42
69460;BME280;57182;55.712;37.612;2022-09-06T02:09:19;100218.47;;;9.30;70.72
69460;BME280;57182;55.712;37.612;2022-09-06T02:11:54;100218.75;;;9.24;70.65
69460;BME280;57182;55.712;37.612;2022-09-06T02:14:27;100221.59;;;9.19;69.99
69460;BME280;57182;55.712;37.612;2022-09-06T02:16:58;100212.66;;;9.06;70.66
69460;BME280;57182;55.712;37.612;2022-09-06T02:19:36;100222.53;;;9.18;70.21
69460;BME280;57182;55.712;37.612;2022-09-06T02:22:09;100196.97;;;9.05;70.75
69460;BME280;57182;55.712;37.612;2022-09-06T02:24:39;100227.13;;;9.13;70.67
69460;BME280;57182;55.712;37.612;2022-09-06T02:27:09;100229.84;;;9.12;70.37
69460;BME280;57182;55.712;37.612;2022-09-06T02:29:40;100232.38;;;9.13;71.61
69460;BME280;57182;55.712;37.612;2022-09-06T02:32:18;100223.75;;;9.11;70.89
69460;BME280;57182;55.712;37.612;2022-09-06T02:34:49;100220.19;;;9.12;70.76
69460;BME280;57182;55.712;37.612;2022-09-06T02:37:20;100230.66;;;9.12;71.12
69460;BME280;57182;55.712;37.612;2022-09-06T02:39:51;100232.50;;;9.10;70.35
69460;BME280;57182;55.712;37.612;2022-09-06T02:42:18;100223.03;;;9.08;70.84
69460;BME280;57182;55.712;37.612;2022-09-06T02:44:47;100231.13;;;9.03;70.87
69460;BME280;57182;55.712;37.612;2022-09-06T02:47:15;100222.75;;;8.95;70.63
69460;BME280;57182;55.712;37.612;2022-09-06T02:49:43;100222.63;;;8.98;71.21
69460;BME280;57182;55.712;37.612;2022-09-06T02:52:11;100232.31;;;8.96;71.04
69460;BME280;57182;55.712;37.612;2022-09-06T02:54:39;100219.66;;;8.87;70.79
69460;BME280;57182;55.712;37.612;2022-09-06T02:57:07;100228.84;;;8.96;71.35
69460;BME280;57182;55.712;37.612;2022-09-06T02:59:34;100211.75;;;8.89;71.17
69460;BME280;57182;55.712;37.612;2022-09-06T03:02:02;100224.03;;;9.05;70.46
69460;BME280;57182;55.712;37.612;2022-09-06T03:04:30;100221.63;;;9.01;71.11
69460;BME280;57182;55.712;37.612;2022-09-06T03:06:59;100235.63;;;9.18;70.82
69460;BME280;57182;55.712;37.612;2022-09-06T03:09:27;100210.03;;;9.06;70.49
69460;BME280;57182;55.712;37.612;2022-09-06T03:11:55;100233.28;;;9.12;70.01
69460;BME280;57182;55.712;37.612;2022-09-06T03:14:22;100212.00;;;9.01;70.49
69460;BME280;57182;55.712;37.612;2022-09-06T03:16:50;100247.00;;;9.17;70.42
69460;BME280;57182;55.712;37.612;2022-09-06T03:19:18;100222.13;;;9.09;70.64
69460;BME280;57182;55.712;37.612;2022-09-06T03:21:46;100230.03;;;9.07;70.69
69460;BME280;57182;55.712;37.612;2022-09-06T03:24:13;100251.31;;;9.18;69.86
69460;BME280;57182;55.712;37.612;2022-09-06T03:26:41;100218.03;;;9.03;70.38
69460;BME280;57182;55.712;37.612;2022-09-06T03:29:09;100228.25;;;9.08;70.04
69460;BME280;57182;55.712;37.612;2022-09-06T03:31:36;100245.09;;;9.21;69.57
69460;BME280;57182;55.712;37.612;2022-09-06T03:34:04;100238.00;;;9.23;69.74
69460;BME280;57182;55.712;37.612;2022-09-06T03:36:36;100240.09;;;9.33;70.04
69460;BME280;57182;55.712;37.612;2022-09-06T03:39:04;100242.72;;;9.33;69.67
69460;BME280;57182;55.712;37.612;2022-09-06T03:41:31;100248.13;;;9.30;70.02
69460;BME280;57182;55.712;37.612;2022-09-06T03:43:59;100243.59;;;9.34;70.28
69460;BME280;57182;55.712;37.612;2022-09-06T03:46:26;100232.84;;;9.21;69.84
69460;BME280;57182;55.712;37.612;2022-09-06T03:48:57;100236.09;;;9.26;70.41
69460;BME280;57182;55.712;37.612;2022-09-06T03:51:25;100237.19;;;9.22;71.66
69460;BME280;57182;55.712;37.612;2022-09-06T03:53:52;100241.63;;;9.20;72.17
69460;BME280;57182;55.712;37.612;2022-09-06T03:56:20;100232.63;;;9.26;72.13
69460;BME280;57182;55.712;37.612;2022-09-06T03:58:47;100243.69;;;9.14;71.65
69460;BME280;57182;55.712;37.612;2022-09-06T04:01:14;100229.25;;;9.05;72.44
69460;BME280;57182;55.712;37.612;2022-09-06T04:03:42;100262.53;;;9.22;72.56
69460;BME280;57182;55.712;37.612;2022-09-06T04:06:40;100266.91;;;9.21;73.87
69460;BME280;57182;55.712;37.612;2022-09-06T04:09:08;100246.81;;;9.22;73.00
69460;BME280;57182;55.712;37.612;2022-09-06T04:11:35;100251.09;;;9.23;72.06
69460;BME280;57182;55.712;37.612;2022-09-06T04:14:02;100249.28;;;9.25;72.68
69460;BME280;57182;55.712;37.612;2022-09-06T04:16:31;100253.56;;;9.26;72.63
69460;BME280;57182;55.712;37.612;2022-09-06T04:18:58;100250.91;;;9.27;72.87
69460;BME280;57182;55.712;37.612;2022-09-06T04:21:27;100255.91;;;9.32;72.36
69460;BME280;57182;55.712;37.612;2022-09-06T04:23:54;100257.41;;;9.37;71.65
69460;BME280;57182;55.712;37.612;2022-09-06T04:26:21;100257.78;;;9.47;71.24
69460;BME280;57182;55.712;37.612;2022-09-06T04:28:49;100256.06;;;9.46;71.29
69460;BME280;57182;55.712;37.612;2022-09-06T04:31:16;100264.66;;;9.49;71.82
69460;BME280;57182;55.712;37.612;2022-09-06T04:33:43;100249.94;;;9.47;71.88
69460;BME280;57182;55.712;37.612;2022-09-06T04:36:11;100229.97;;;9.44;71.69
69460;BME280;57182;55.712;37.612;2022-09-06T04:38:42;100253.09;;;9.54;72.24
69460;BME280;57182;55.712;37.612;2022-09-06T04:41:11;100253.03;;;9.55;71.96
69460;BME280;57182;55.712;37.612;2022-09-06T04:43:39;100247.69;;;9.57;71.79
69460;BME280;57182;55.712;37.612;2022-09-06T04:46:27;100256.19;;;9.62;71.76
69460;BME280;57182;55.712;37.612;2022-09-06T04:48:56;100231.72;;;9.44;71.17
69460;BME280;57182;55.712;37.612;2022-09-06T04:51:27;100243.94;;;9.45;71.06
69460;BME280;57182;55.712;37.612;2022-09-06T04:53:55;100234.75;;;9.54;71.25
69460;BME280;57182;55.712;37.612;2022-09-06T04:56:27;100243.53;;;9.70;71.43
69460;BME280;57182;55.712;37.612;2022-09-06T04:59:04;100244.25;;;9.73;71.70
69460;BME280;57182;55.712;37.612;2022-09-06T05:01:35;100240.53;;;9.77;71.76
69460;BME280;57182;55.712;37.612;2022-09-06T05:04:03;100263.59;;;9.88;71.76
69460;BME280;57182;55.712;37.612;2022-09-06T05:06:31;100243.53;;;9.87;71.50
69460;BME280;57182;55.712;37.612;2022-09-06T05:08:58;100257.50;;;9.87;71.35
69460;BME280;57182;55.712;37.612;2022-09-06T05:11:25;100258.59;;;9.83;71.00
69460;BME280;57182;55.712;37.612;2022-09-06T05:13:53;100252.78;;;9.77;71.25
69460;BME280;57182;55.712;37.612;2022-09-06T05:16:21;100237.78;;;9.63;71.13
69460;BME280;57182;55.712;37.612;2022-09-06T05:19:49;100253.56;;;9.79;69.88
69460;BME280;57182;55.712;37.612;2022-09-06T05:23:44;100242.78;;;9.85;69.90
69460;BME280;57182;55.712;37.612;2022-09-06T05:26:11;100240.00;;;9.88;69.82
69460;BME280;57182;55.712;37.612;2022-09-06T05:28:40;100251.09;;;9.93;69.64
69460;BME280;57182;55.712;37.612;2022-09-06T05:31:09;100230.56;;;9.84;69.30
69460;BME280;57182;55.712;37.612;2022-09-06T05:33:37;100242.28;;;9.94;68.72
69460;BME280;57182;55.712;37.612;2022-09-06T05:36:05;100255.72;;;10.05;68.53
69460;BME280;57182;55.712;37.612;2022-09-06T05:38:34;100262.31;;;10.14;67.94
69460;BME280;57182;55.712;37.612;2022-09-06T05:41:01;100252.78;;;10.11;68.12
69460;BME280;57182;55.712;37.612;2022-09-06T05:43:29;100246.09;;;10.05;67.46
69460;BME280;57182;55.712;37.612;2022-09-06T05:45:56;100233.53;;;9.78;67.79
69460;BME280;57182;55.712;37.612;2022-09-06T05:48:55;100251.00;;;9.94;67.63
69460;BME280;57182;55.712;37.612;2022-09-06T05:51:25;100246.38;;;9.99;68.07
69460;BME280;57182;55.712;37.612;2022-09-06T05:53:52;100246.31;;;10.01;67.26
69460;BME280;57182;55.712;37.612;2022-09-06T05:56:20;100251.88;;;10.12;66.99
69460;BME280;57182;55.712;37.612;2022-09-06T05:58:50;100238.56;;;10.17;66.79
69460;BME280;57182;55.712;37.612;2022-09-06T06:01:28;100243.31;;;10.26;65.71
69460;BME280;57182;55.712;37.612;2022-09-06T06:03:59;100247.78;;;10.24;66.13
69460;BME280;57182;55.712;37.612;2022-09-06T06:06:29;100239.22;;;10.20;65.61
69460;BME280;57182;55.712;37.612;2022-09-06T06:08:57;100238.16;;;10.24;65.98
69460;BME280;57182;55.712;37.612;2022-09-06T06:11:26;100255.47;;;10.44;65.55
69460;BME280;57182;55.712;37.612;2022-09-06T06:13:55;100248.19;;;10.49;65.24
69460;BME280;57182;55.712;37.612;2022-09-06T06:16:22;100254.81;;;10.56;65.31
69460;BME280;57182;55.712;37.612;2022-09-06T06:18:50;100259.97;;;10.57;64.49
69460;BME280;57182;55.712;37.612;2022-09-06T06:21:20;100263.22;;;10.62;64.14
69460;BME280;57182;55.712;37.612;2022-09-06T06:23:51;100256.53;;;10.72;64.05
69460;BME280;57182;55.712;37.612;2022-09-06T06:26:19;100252.97;;;10.73;64.21
69460;BME280;57182;55.712;37.612;2022-09-06T06:28:46;100252.63;;;10.80;64.06
69460;BME280;57182;55.712;37.612;2022-09-06T06:31:15;100242.13;;;10.80;63.37
69460;BME280;57182;55.712;37.612;2022-09-06T06:33:42;100246.66;;;10.93;63.24
69460;BME280;57182;55.712;37.612;2022-09-06T06:38:42;100248.31;;;11.25;62.09
69460;BME280;57182;55.712;37.612;2022-09-06T06:41:15;100237.09;;;11.37;61.44
69460;BME280;57182;55.712;37.612;2022-09-06T06:43:43;100237.28;;;11.34;61.65
69460;BME280;57182;55.712;37.612;2022-09-06T06:46:13;100229.66;;;11.14;61.87
69460;BME280;57182;55.712;37.612;2022-09-06T06:48:42;100242.63;;;11.17;61.53
69460;BME280;57182;55.712;37.612;2022-09-06T06:51:12;100251.53;;;11.15;61.89
69460;BME280;57182;55.712;37.612;2022-09-06T06:53:39;100249.59;;;10.87;63.04
69460;BME280;57182;55.712;37.612;2022-09-06T06:56:20;100249.03;;;10.49;64.25
69460;BME280;57182;55.712;37.612;2022-09-06T06:58:50;100244.22;;;10.25;65.11
69460;BME280;57182;55.712;37.612;2022-09-06T07:01:19;100252.47;;;10.34;65.24
69460;BME280;57182;55.712;37.612;2022-09-06T07:03:47;100257.69;;;10.51;65.36
69460;BME280;57182;55.712;37.612;2022-09-06T07:06:17;100235.56;;;10.40;64.99
69460;BME280;57182;55.712;37.612;2022-09-06T07:08:46;100249.84;;;10.67;65.12
69460;BME280;57182;55.712;37.612;2022-09-06T07:11:14;100257.78;;;10.81;64.74
69460;BME280;57182;55.712;37.612;2022-09-06T07:13:44;100248.13;;;10.66;64.82
69460;BME280;57182;55.712;37.612;2022-09-06T07:16:17;100239.75;;;10.59;64.77
69460;BME280;57182;55.712;37.612;2022-09-06T07:18:51;100240.81;;;10.88;63.00
69460;BME280;57182;55.712;37.612;2022-09-06T07:21:22;100240.28;;;11.13;62.89
69460;BME280;57182;55.712;37.612;2022-09-06T07:24:06;100240.59;;;11.22;62.14
69460;BME280;57182;55.712;37.612;2022-09-06T07:26:41;100231.94;;;11.66;61.81
69460;BME280;57182;55.712;37.612;2022-09-06T07:29:31;100224.16;;;11.64;61.65
69460;BME280;57182;55.712;37.612;2022-09-06T07:31:58;100240.97;;;11.77;60.95
69460;BME280;57182;55.712;37.612;2022-09-06T07:34:41;100238.72;;;11.85;60.79
69460;BME280;57182;55.712;37.612;2022-09-06T07:37:09;100231.31;;;12.06;60.35
69460;BME280;57182;55.712;37.612;2022-09-06T07:39:36;100207.00;;;12.45;59.26
69460;BME280;57182;55.712;37.612;2022-09-06T07:42:04;100209.97;;;12.95;57.85
69460;BME280;57182;55.712;37.612;2022-09-06T07:44:32;100211.75;;;13.36;56.64
69460;BME280;57182;55.712;37.612;2022-09-06T07:46:59;100216.66;;;13.28;56.02
69460;BME280;57182;55.712;37.612;2022-09-06T07:49:54;100201.69;;;12.87;56.63
69460;BME280;57182;55.712;37.612;2022-09-06T07:52:41;100213.97;;;12.46;56.78
69460;BME280;57182;55.712;37.612;2022-09-06T07:55:28;100222.59;;;12.20;57.25
69460;BME280;57182;55.712;37.612;2022-09-06T07:57:55;100233.13;;;12.20;57.03
69460;BME280;57182;55.712;37.612;2022-09-06T08:00:22;100206.06;;;12.18;56.77
69460;BME280;57182;55.712;37.612;2022-09-06T08:02:49;100226.28;;;12.59;56.17
69460;BME280;57182;55.712;37.612;2022-09-06T08:05:16;100218.19;;;13.03;55.21
69460;BME280;57182;55.712;37.612;2022-09-06T08:08:05;100214.84;;;13.15;54.86
69460;BME280;57182;55.712;37.612;2022-09-06T08:10:52;100216.59;;;13.42;54.83
69460;BME280;57182;55.712;37.612;2022-09-06T08:13:19;100225.38;;;13.81;54.47
69460;BME280;57182;55.712;37.612;2022-09-06T08:15:46;100216.69;;;13.67;55.12
69460;BME280;57182;55.712;37.612;2022-09-06T08:18:18;100220.09;;;13.15;56.91
69460;BME280;57182;55.712;37.612;2022-09-06T08:20:45;100217.69;;;12.70;57.69
69460;BME280;57182;55.712;37.612;2022-09-06T08:23:12;100224.69;;;12.29;59.57
69460;BME280;57182;55.712;37.612;2022-09-06T08:25:43;100233.94;;;11.92;62.55
69460;BME280;57182;55.712;37.612;2022-09-06T08:28:25;100202.72;;;11.72;65.16
69460;BME280;57182;55.712;37.612;2022-09-06T08:31:56;100219.97;;;12.48;61.61
69460;BME280;57182;55.712;37.612;2022-09-06T08:34:24;100206.97;;;13.67;60.31
69460;BME280;57182;55.712;37.612;2022-09-06T08:36:51;100210.59;;;14.55;59.11
69460;BME280;57182;55.712;37.612;2022-09-06T08:39:18;100204.22;;;14.70;57.96
69460;BME280;57182;55.712;37.612;2022-09-06T08:41:54;100200.03;;;14.29;58.01
69460;BME280;57182;55.712;37.612;2022-09-06T08:44:36;100189.88;;;13.73;58.22
69460;BME280;57182;55.712;37.612;2022-09-06T08:47:20;100192.63;;;13.32;59.37
69460;BME280;57182;55.712;37.612;2022-09-06T08:49:55;100195.84;;;13.10;59.50
69460;BME280;57182;55.712;37.612;2022-09-06T08:55:29;100191.09;;;14.32;53.33
69460;BME280;57182;55.712;37.612;2022-09-06T08:58:09;100188.66;;;14.41;54.06
69460;BME280;57182;55.712;37.612;2022-09-06T09:00:41;100184.94;;;14.19;55.04
69460;BME280;57182;55.712;37.612;2022-09-06T09:03:22;100179.34;;;13.85;54.45
69460;BME280;57182;55.712;37.612;2022-09-06T09:05:52;100189.78;;;13.74;55.97
69460;BME280;57182;55.712;37.612;2022-09-06T09:11:10;100186.44;;;13.46;55.89
69460;BME280;57182;55.712;37.612;2022-09-06T09:13:52;100182.44;;;13.40;54.34
69460;BME280;57182;55.712;37.612;2022-09-06T09:16:21;100192.66;;;13.45;54.91
69460;BME280;57182;55.712;37.612;2022-09-06T09:18:51;100178.66;;;13.57;54.03
69460;BME280;57182;55.712;37.612;2022-09-06T09:21:21;100174.81;;;13.36;54.17
69460;BME280;57182;55.712;37.612;2022-09-06T09:24:08;100187.91;;;13.37;54.94
69460;BME280;57182;55.712;37.612;2022-09-06T09:26:56;100187.34;;;13.05;54.53
69460;BME280;57182;55.712;37.612;2022-09-06T09:29:25;100198.94;;;12.89;55.65
69460;BME280;57182;55.712;37.612;2022-09-06T09:31:56;100189.50;;;12.72;56.18
69460;BME280;57182;55.712;37.612;2022-09-06T09:34:37;100183.75;;;12.80;57.29
69460;BME280;57182;55.712;37.612;2022-09-06T09:37:19;100182.06;;;13.05;56.43
69460;BME280;57182;55.712;37.612;2022-09-06T09:40:32;100175.47;;;12.98;56.33
69460;BME280;57182;55.712;37.612;2022-09-06T09:43:15;100166.97;;;12.81;56.69
69460;BME280;57182;55.712;37.612;2022-09-06T09:45:43;100162.19;;;12.87;56.36
69460;BME280;57182;55.712;37.612;2022-09-06T09:48:24;100166.03;;;12.82;56.77
69460;BME280;57182;55.712;37.612;2022-09-06T09:50:55;100179.09;;;12.83;57.13
69460;BME280;57182;55.712;37.612;2022-09-06T09:53:23;100163.47;;;12.94;56.68
69460;BME280;57182;55.712;37.612;2022-09-06T09:55:59;100173.75;;;12.85;57.93
69460;BME280;57182;55.712;37.612;2022-09-06T09:58:53;100189.50;;;12.58;61.26
69460;BME280;57182;55.712;37.612;2022-09-06T10:01:26;100176.28;;;12.03;61.64
69460;BME280;57182;55.712;37.612;2022-09-06T10:04:10;100192.78;;;11.77;64.55
69460;BME280;57182;55.712;37.612;2022-09-06T10:07:13;100192.78;;;11.31;66.65
69460;BME280;57182;55.712;37.612;2022-09-06T10:09:45;100177.41;;;11.10;66.64
69460;BME280;57182;55.712;37.612;2022-09-06T10:12:27;100172.25;;;11.08;67.69
69460;BME280;57182;55.712;37.612;2022-09-06T10:14:56;100186.38;;;11.51;65.15
69460;BME280;57182;55.712;37.612;2022-09-06T10:17:46;100182.75;;;11.97;67.48
69460;BME280;57182;55.712;37.612;2022-09-06T10:20:15;100166.84;;;12.55;64.12
69460;BME280;57182;55.712;37.612;2022-09-06T10:25:46;100174.03;;;12.80;62.87
69460;BME280;57182;55.712;37.612;2022-09-06T10:28:29;100173.28;;;12.78;62.01
69460;BME280;57182;55.712;37.612;2022-09-06T10:34:05;100173.88;;;12.69;62.69
69460;BME280;57182;55.712;37.612;2022-09-06T10:39:48;100176.53;;;12.27;61.83
69460;BME280;57182;55.712;37.612;2022-09-06T10:42:51;100170.91;;;12.33;62.48
69460;BME280;57182;55.712;37.612;2022-09-06T10:45:36;100171.38;;;12.39;61.87
69460;BME280;57182;55.712;37.612;2022-09-06T10:48:22;100174.19;;;12.22;62.33
69460;BME280;57182;55.712;37.612;2022-09-06T10:51:00;100167.53;;;12.17;62.04
69460;BME280;57182;55.712;37.612;2022-09-06T10:56:05;100186.53;;;12.08;62.29
69460;BME280;57182;55.712;37.612;2022-09-06T10:58:49;100177.28;;;11.86;63.63
69460;BME280;57182;55.712;37.612;2022-09-06T11:04:48;100183.13;;;11.62;64.18
69460;BME280;57182;55.712;37.612;2022-09-06T11:07:43;100169.09;;;11.47;63.23
69460;BME280;57182;55.712;37.612;2022-09-06T11:10:35;100167.25;;;11.63;63.20
69460;BME280;57182;55.712;37.612;2022-09-06T11:13:21;100172.03;;;11.86;63.23
69460;BME280;57182;55.712;37.612;2022-09-06T11:16:06;100182.38;;;12.18;62.18
69460;BME280;57182;55.712;37.612;2022-09-06T11:18:49;100166.22;;;12.38;61.10
69460;BME280;57182;55.712;37.612;2022-09-06T11:27:20;100170.81;;;12.20;61.82
69460;BME280;57182;55.712;37.612;2022-09-06T11:29:45;100166.22;;;12.10;61.60
69460;BME280;57182;55.712;37.612;2022-09-06T11:32:38;100181.22;;;11.93;62.55
69460;BME280;57182;55.712;37.612;2022-09-06T11:35:08;100161.06;;;11.64;62.79
69460;BME280;57182;55.712;37.612;2022-09-06T11:37:42;100162.38;;;11.57;63.10
69460;BME280;57182;55.712;37.612;2022-09-06T11:40:22;100152.59;;;11.59;63.18
69460;BME280;57182;55.712;37.612;2022-09-06T11:45:19;100178.31;;;11.84;63.22
69460;BME280;57182;55.712;37.612;2022-09-06T11:47:52;100144.94;;;11.70;65.20
69460;BME280;57182;55.712;37.612;2022-09-06T11:52:58;100159.03;;;11.69;66.38
69460;BME280;57182;55.712;37.612;2022-09-06T11:55:38;100155.81;;;11.64;68.07
69460;BME280;57182;55.712;37.612;2022-09-06T12:06:44;100142.66;;;11.64;65.72
69460;BME280;57182;55.712;37.612;2022-09-06T12:09:32;100143.59;;;11.63;65.39
69460;BME280;57182;55.712;37.612;2022-09-06T12:12:00;100126.84;;;11.50;66.25
69460;BME280;57182;55.712;37.612;2022-09-06T12:14:35;100137.34;;;11.50;66.63
69460;BME280;57182;55.712;37.612;2022-09-06T12:17:18;100147.84;;;11.36;66.69
69460;BME280;57182;55.712;37.612;2022-09-06T12:25:04;100149.38;;;11.24;68.25
69460;BME280;57182;55.712;37.612;2022-09-06T12:27:36;100147.13;;;11.18;70.43
69460;BME280;57182;55.712;37.612;2022-09-06T12:30:12;100157.06;;;11.13;69.33
69460;BME280;57182;55.712;37.612;2022-09-06T12:32:42;100132.09;;;10.91;69.76
69460;BME280;57182;55.712;37.612;2022-09-06T12:35:22;100157.50;;;10.90;70.74
69460;BME280;57182;55.712;37.612;2022-09-06T12:38:13;100133.13;;;10.88;70.58
69460;BME280;57182;55.712;37.612;2022-09-06T12:40:47;100149.69;;;11.04;72.47
69460;BME280;57182;55.712;37.612;2022-09-06T12:43:18;100143.22;;;11.25;70.31
69460;BME280;57182;55.712;37.612;2022-09-06T12:45:49;100121.16;;;11.28;70.94
69460;BME280;57182;55.712;37.612;2022-09-06T12:48:25;100139.53;;;11.58;71.22
69460;BME280;57182;55.712;37.612;2022-09-06T12:51:04;100145.63;;;11.58;70.57
69460;BME280;57182;55.712;37.612;2022-09-06T12:53:32;100140.19;;;11.61;69.80
69460;BME280;57182;55.712;37.612;2022-09-06T12:56:05;100117.81;;;11.40;70.09
69460;BME280;57182;55.712;37.612;2022-09-06T12:58:35;100125.03;;;11.36;69.85
69460;BME280;57182;55.712;37.612;2022-09-06T13:01:30;100138.44;;;11.32;72.12
69460;BME280;57182;55.712;37.612;2022-09-06T13:04:07;100125.44;;;11.15;71.91
69460;BME280;57182;55.712;37.612;2022-09-06T13:06:40;100127.03;;;11.17;71.57
69460;BME280;57182;55.712;37.612;2022-09-06T13:09:11;100132.72;;;11.10;71.90
69460;BME280;57182;55.712;37.612;2022-09-06T13:11:46;100134.88;;;11.03;73.03
69460;BME280;57182;55.712;37.612;2022-09-06T13:14:23;100140.31;;;11.00;72.47
69460;BME280;57182;55.712;37.612;2022-09-06T13:16:52;100125.31;;;10.87;71.63
69460;BME280;57182;55.712;37.612;2022-09-06T13:19:38;100127.94;;;10.87;72.50
69460;BME280;57182;55.712;37.612;2022-09-06T13:22:07;100095.69;;;10.69;71.69
69460;BME280;57182;55.712;37.612;2022-09-06T13:24:46;100133.63;;;10.95;72.48
69460;BME280;57182;55.712;37.612;2022-09-06T13:27:26;100097.00;;;10.92;71.75
69460;BME280;57182;55.712;37.612;2022-09-06T13:30:04;100118.06;;;11.21;70.75
69460;BME280;57182;55.712;37.612;2022-09-06T13:32:44;100129.44;;;11.36;70.35
69460;BME280;57182;55.712;37.612;2022-09-06T13:35:22;100113.44;;;11.25;69.50
69460;BME280;57182;55.712;37.612;2022-09-06T13:37:51;100115.34;;;11.37;69.58
69460;BME280;57182;55.712;37.612;2022-09-06T13:40:41;100117.84;;;11.54;69.24
69460;BME280;57182;55.712;37.612;2022-09-06T13:43:29;100115.41;;;11.65;69.38
69460;BME280;57182;55.712;37.612;2022-09-06T13:46:06;100111.84;;;11.66;68.96
69460;BME280;57182;55.712;37.612;2022-09-06T13:48:35;100119.00;;;11.64;68.82
69460;BME280;57182;55.712;37.612;2022-09-06T13:51:04;100112.41;;;11.57;68.51
69460;BME280;57182;55.712;37.612;2022-09-06T13:53:33;100109.41;;;11.49;68.66
69460;BME280;57182;55.712;37.612;2022-09-06T13:56:01;100115.56;;;11.34;68.71
69460;BME280;57182;55.712;37.612;2022-09-06T13:58:28;100115.22;;;11.24;67.99
69460;BME280;57182;55.712;37.612;2022-09-06T14:00:57;100115.09;;;11.12;68.31
69460;BME280;57182;55.712;37.612;2022-09-06T14:03:30;100109.28;;;10.91;68.19
69460;BME280;57182;55.712;37.612;2022-09-06T14:05:58;100108.38;;;10.92;68.76
69460;BME280;57182;55.712;37.612;2022-09-06T14:08:27;100122.53;;;10.90;68.99
69460;BME280;57182;55.712;37.612;2022-09-06T14:11:14;100113.66;;;10.77;69.34
69460;BME280;57182;55.712;37.612;2022-09-06T14:13:42;100121.63;;;10.75;69.37
69460;BME280;57182;55.712;37.612;2022-09-06T14:16:09;100118.84;;;10.62;69.83
69460;BME280;57182;55.712;37.612;2022-09-06T14:18:37;100115.63;;;10.57;69.24
69460;BME280;57182;55.712;37.612;2022-09-06T14:21:05;100119.75;;;10.61;69.08
69460;BME280;57182;55.712;37.612;2022-09-06T14:23:33;100099.44;;;10.49;68.89
69460;BME280;57182;55.712;37.612;2022-09-06T14:26:02;100114.50;;;10.61;68.75
69460;BME280;57182;55.712;37.612;2022-09-06T14:28:35;100111.47;;;10.53;68.08
69460;BME280;57182;55.712;37.612;2022-09-06T14:31:14;100115.84;;;10.53;67.79
69460;BME280;57182;55.712;37.612;2022-09-06T14:33:41;100109.78;;;10.52;68.52
69460;BME280;57182;55.712;37.612;2022-09-06T14:36:11;100111.72;;;10.64;68.12
69460;BME280;57182;55.712;37.612;2022-09-06T14:38:43;100119.00;;;10.59;68.44